Time;durP1;ratioP1;P1;durP2;ratioP2;P2;SDS_P1;SDS_P2;PMS_P1;PMS_P2;Temp;Humidity;BMP_temperature;BMP_pressure;BME280_temperature;BME280_humidity;BME280_pressure;Samples;Min_cycle;Max_cycle;Signal;HPM_P1;HPM_P2
2021/09/26 00:00:57;;;;;;;30.45;19.27;;;;;;;15.72;81.40;101344.06;5051477;28;20048;-40
2021/09/26 00:03:23;;;;;;;33.15;19.00;;;;;;;15.72;81.29;101346.78;5050775;28;20043;-41
2021/09/26 00:05:48;;;;;;;26.08;17.63;;;;;;;15.76;81.34;101337.16;5038089;28;20021;-40
2021/09/26 00:08:14;;;;;;;30.88;17.42;;;;;;;15.75;81.42;101330.06;5052960;28;20017;-41
2021/09/26 00:10:39;;;;;;;25.35;17.33;;;;;;;15.75;81.33;101330.06;5051995;28;20047;-40
2021/09/26 00:13:05;;;;;;;28.33;19.13;;;;;;;15.72;81.45;101327.78;5053154;28;20067;-42
2021/09/26 00:15:31;;;;;;;27.98;17.38;;;;;;;15.73;81.35;101334.84;5033385;28;20037;-42
2021/09/26 00:17:57;;;;;;;27.38;18.20;;;;;;;15.69;81.77;101334.44;5033566;28;20535;-41
2021/09/26 00:20:22;;;;;;;24.60;17.35;;;;;;;15.69;81.77;101333.59;5034097;28;20064;-41
2021/09/26 00:22:48;;;;;;;30.27;19.15;;;;;;;15.66;81.80;101332.06;5053374;28;20064;-42
2021/09/26 00:25:16;;;;;;;28.83;18.27;;;;;;;15.71;81.52;101328.78;5036856;28;20052;-41
2021/09/26 00:27:42;;;;;;;26.92;16.80;;;;;;;15.77;81.40;101339.69;5033449;28;20381;-41
2021/09/26 00:30:08;;;;;;;26.02;18.35;;;;;;;15.79;81.18;101339.47;5033315;28;20064;-40
2021/09/26 00:32:34;;;;;;;28.75;18.60;;;;;;;15.77;81.42;101338.81;5032913;28;20477;-40
2021/09/26 00:34:59;;;;;;;24.98;17.73;;;;;;;15.77;81.47;101327.97;5046700;28;20032;-41
2021/09/26 00:37:25;;;;;;;27.27;17.35;;;;;;;15.77;81.21;101333.38;5053065;28;20104;-41
2021/09/26 00:39:50;;;;;;;26.60;17.90;;;;;;;15.78;81.19;101340.50;5052826;28;20132;-41
2021/09/26 00:42:15;;;;;;;28.77;18.83;;;;;;;15.74;81.56;101339.22;5046833;28;20176;-41
2021/09/26 00:44:41;;;;;;;26.27;16.63;;;;;;;15.73;81.39;101334.84;5043463;28;20025;-40
2021/09/26 00:47:07;;;;;;;26.63;17.42;;;;;;;15.75;81.29;101328.19;5052768;28;20025;-42
2021/09/26 00:49:32;;;;;;;23.52;17.08;;;;;;;15.74;81.46;101331.09;5050621;28;20152;-42
2021/09/26 00:51:58;;;;;;;28.13;18.10;;;;;;;15.72;81.53;101335.91;5050881;28;20028;-41
2021/09/26 00:54:24;;;;;;;24.85;18.23;;;;;;;15.67;81.65;101344.63;5044607;28;20025;-41
2021/09/26 00:56:49;;;;;;;23.30;16.70;;;;;;;15.68;81.92;101334.59;5041933;28;20532;-41
2021/09/26 00:59:20;;;;;;;30.98;18.88;;;;;;;15.58;81.92;101338.50;5050350;28;20051;-41
2021/09/26 01:01:46;;;;;;;25.85;18.52;;;;;;;15.57;82.07;101333.31;5042690;28;20546;-42
2021/09/26 01:04:12;;;;;;;27.60;18.55;;;;;;;15.53;81.97;101332.88;5042027;28;20070;-42
2021/09/26 01:06:46;;;;;;;27.33;18.65;;;;;;;15.51;82.44;101329.53;5032494;28;20021;-42
2021/09/26 01:09:22;;;;;;;29.63;19.15;;;;;;;15.50;82.21;101327.84;5032428;28;20385;-41
2021/09/26 01:12:19;;;;;;;28.00;18.27;;;;;;;15.43;82.34;101327.00;5034990;28;20370;-43
2021/09/26 01:14:52;;;;;;;29.05;19.70;;;;;;;15.42;82.44;101319.88;5045283;28;20460;-42
2021/09/26 01:17:27;;;;;;;25.95;18.67;;;;;;;15.40;82.70;101321.13;5051140;28;20072;-42
2021/09/26 01:20:17;;;;;;;31.90;19.15;;;;;;;15.35;82.94;101313.63;5052269;28;20029;-41
2021/09/26 01:23:15;;;;;;;26.67;18.23;;;;;;;15.33;82.89;101313.81;5032266;28;20464;-41
2021/09/26 01:25:59;;;;;;;29.02;18.33;;;;;;;15.33;83.14;101308.38;5050169;28;20037;-42
2021/09/26 01:28:32;;;;;;;26.75;17.38;;;;;;;15.36;82.75;101313.41;5051302;28;20071;-41
2021/09/26 01:31:01;;;;;;;28.17;18.58;;;;;;;15.34;82.77;101309.22;5049997;28;20116;-41
2021/09/26 01:33:33;;;;;;;28.45;18.63;;;;;;;15.32;82.76;101305.84;5048294;28;20028;-41
2021/09/26 01:36:09;;;;;;;28.85;18.55;;;;;;;15.31;82.80;101301.50;5032107;28;20424;-41
2021/09/26 01:38:37;;;;;;;23.70;16.50;;;;;;;15.32;82.95;101309.44;5032060;28;20026;-41
2021/09/26 01:41:10;;;;;;;25.83;18.85;;;;;;;15.32;83.04;101298.59;5031453;28;20053;-42
2021/09/26 01:43:39;;;;;;;31.35;18.83;;;;;;;15.33;83.04;101307.56;5031097;28;20026;-42
2021/09/26 01:46:06;;;;;;;24.20;17.95;;;;;;;15.39;82.62;101298.59;5032293;28;20254;-41
2021/09/26 01:48:38;;;;;;;29.02;18.05;;;;;;;15.37;82.88;101295.25;5031983;28;20025;-41
2021/09/26 01:51:05;;;;;;;27.55;18.75;;;;;;;15.33;82.95;101297.53;5042534;28;20095;-41
2021/09/26 01:53:30;;;;;;;26.58;17.45;;;;;;;15.33;83.17;101294.00;5037076;28;20479;-41
2021/09/26 01:55:57;;;;;;;29.67;18.90;;;;;;;15.32;83.35;101286.88;5051882;28;20157;-41
2021/09/26 01:58:24;;;;;;;27.65;17.70;;;;;;;15.34;83.08;101301.06;5051283;28;20036;-41
2021/09/26 02:00:49;;;;;;;31.55;18.77;;;;;;;15.34;83.12;101292.94;5030678;28;20026;-41
2021/09/26 02:03:18;;;;;;;31.63;19.13;;;;;;;15.31;82.91;101296.06;5043407;28;20051;-41
2021/09/26 02:05:44;;;;;;;26.00;17.88;;;;;;;15.30;83.47;101297.94;5031809;28;20029;-42
2021/09/26 02:08:10;;;;;;;30.35;19.35;;;;;;;15.27;83.18;101292.94;5030431;28;20392;-42
2021/09/26 02:10:36;;;;;;;30.88;18.40;;;;;;;15.25;83.29;101296.88;5035430;28;20025;-43
2021/09/26 02:13:05;;;;;;;27.23;17.52;;;;;;;15.25;83.20;101291.47;5050361;28;20486;-41
2021/09/26 02:15:31;;;;;;;28.90;18.60;;;;;;;15.21;83.62;101295.59;5034604;28;20483;-42
2021/09/26 02:17:57;;;;;;;25.92;17.95;;;;;;;15.16;83.97;101296.19;5050855;28;20025;-41
2021/09/26 02:20:23;;;;;;;27.52;19.40;;;;;;;15.08;84.27;101296.38;5049084;28;20115;-41
2021/09/26 02:22:49;;;;;;;26.90;18.58;;;;;;;15.07;84.16;101294.69;5051600;28;20068;-41
2021/09/26 02:25:17;;;;;;;27.42;18.90;;;;;;;15.11;84.13;101293.25;5033295;28;20065;-41
2021/09/26 02:27:43;;;;;;;;;;;;;;;15.09;84.11;101293.47;5031072;28;20027;-42
2021/09/26 02:30:09;;;;;;;27.10;19.40;;;;;;;15.12;83.88;101297.66;5034202;28;19999;-41
2021/09/26 02:32:35;;;;;;;32.55;18.88;;;;;;;15.10;84.33;101289.72;5051332;28;20441;-41
2021/09/26 02:35:00;;;;;;;28.42;18.05;;;;;;;15.11;83.97;101288.69;5036572;28;20045;-41
2021/09/26 02:37:26;;;;;;;27.17;19.17;;;;;;;15.11;84.16;101285.97;5030268;28;20029;-42
2021/09/26 02:39:52;;;;;;;26.40;18.70;;;;;;;15.13;84.27;101293.88;5031408;28;20147;-41
2021/09/26 02:42:27;;;;;;;28.85;18.20;;;;;;;15.12;84.59;101293.06;5030685;28;20028;-42
2021/09/26 02:44:55;;;;;;;24.63;17.42;;;;;;;15.20;84.10;101285.81;5044604;28;20477;-41
2021/09/26 02:47:24;;;;;;;28.65;17.88;;;;;;;15.24;83.65;101284.34;5050214;28;20087;-41
2021/09/26 02:49:51;;;;;;;25.23;17.48;;;;;;;15.31;83.48;101287.94;5033538;28;20025;-41
2021/09/26 02:52:17;;;;;;;28.02;17.30;;;;;;;15.34;83.30;101287.53;5050161;28;20464;-42
2021/09/26 02:54:43;;;;;;;27.65;18.27;;;;;;;15.35;83.54;101291.94;5039598;28;20036;-42
2021/09/26 02:57:10;;;;;;;28.40;18.23;;;;;;;15.34;83.28;101293.78;5029933;28;20530;-41
2021/09/26 02:59:36;;;;;;;27.05;17.00;;;;;;;15.33;83.42;101299.41;5031209;28;20025;-41
2021/09/26 03:02:02;;;;;;;29.23;18.08;;;;;;;15.32;83.54;101290.44;5034494;28;20491;-42
2021/09/26 03:04:28;;;;;;;26.58;18.33;;;;;;;15.32;83.75;101285.03;5056319;28;20124;-42
2021/09/26 03:06:53;;;;;;;25.33;17.45;;;;;;;15.35;83.37;101276.47;5033690;28;20017;-41
2021/09/26 03:09:19;;;;;;;21.80;15.27;;;;;;;15.41;83.14;101266.69;5066622;28;20120;-42
2021/09/26 03:11:44;;;;;;;24.33;17.27;;;;;;;15.47;82.72;101265.88;5034862;28;20385;-41
2021/09/26 03:14:09;;;;;;;22.83;17.63;;;;;;;15.44;82.99;101263.56;5041332;28;20053;-42
2021/09/26 03:16:35;;;;;;;27.27;16.85;;;;;;;15.44;83.36;101276.28;5054805;28;20037;-41
2021/09/26 03:19:00;;;;;;;25.92;17.60;;;;;;;15.43;83.25;101278.19;5054657;28;20028;-41
2021/09/26 03:21:29;;;;;;;24.85;17.52;;;;;;;15.45;82.98;101267.94;5053746;28;20028;-42
2021/09/26 03:23:55;;;;;;;25.67;17.08;;;;;;;15.42;83.32;101265.63;5049799;28;20021;-41
2021/09/26 03:26:21;;;;;;;29.10;16.45;;;;;;;15.42;83.03;101262.09;5034555;28;20026;-42
2021/09/26 03:28:46;;;;;;;27.33;16.85;;;;;;;15.43;83.23;101267.34;5034559;28;20419;-41
2021/09/26 03:31:12;;;;;;;26.17;17.02;;;;;;;15.47;83.15;101265.88;5041571;28;20441;-42
2021/09/26 03:33:37;;;;;;;25.33;17.00;;;;;;;15.46;83.12;101266.91;5052473;28;20029;-41
2021/09/26 03:36:03;;;;;;;24.48;17.42;;;;;;;15.39;83.31;101260.63;5035253;28;20079;-41
2021/09/26 03:38:29;;;;;;;25.77;17.75;;;;;;;15.38;83.46;101264.41;5051173;28;20033;-42
2021/09/26 03:40:54;;;;;;;25.75;17.35;;;;;;;15.39;83.38;101266.06;5053104;28;20498;-43
2021/09/26 03:43:19;;;;;;;24.45;17.60;;;;;;;15.37;83.40;101258.09;5054122;28;20025;-42
2021/09/26 03:45:50;;;;;;;24.35;18.15;;;;;;;15.39;83.39;101260.63;5034646;28;20383;-41
2021/09/26 03:48:20;;;;;;;23.90;16.80;;;;;;;15.38;83.28;101256.25;5034171;28;20049;-41
2021/09/26 03:50:46;;;;;;;25.45;17.48;;;;;;;15.30;83.62;101259.97;5039100;28;20029;-42
2021/09/26 03:53:11;;;;;;;24.77;17.23;;;;;;;15.31;83.88;101252.69;5052748;28;20037;-42
2021/09/26 03:55:37;;;;;;;28.15;17.63;;;;;;;15.26;83.96;101255.16;5038245;28;20044;-41
2021/09/26 03:58:02;;;;;;;24.75;18.42;;;;;;;15.22;84.27;101253.88;5053606;28;20111;-42
2021/09/26 04:00:27;;;;;;;23.98;17.63;;;;;;;15.22;84.52;101253.88;5051555;28;20036;-41
2021/09/26 04:02:53;;;;;;;26.10;18.92;;;;;;;15.25;85.20;101253.50;5052611;28;20039;-42
2021/09/26 04:05:18;;;;;;;26.23;18.80;;;;;;;15.28;85.04;101253.91;5034772;28;20534;-41
2021/09/26 04:07:44;;;;;;;27.05;18.85;;;;;;;15.31;85.26;101255.38;5033986;28;20464;-43
2021/09/26 04:10:10;;;;;;;22.85;17.00;;;;;;;15.39;84.86;101249.78;5034358;28;20400;-41
2021/09/26 04:12:35;;;;;;;24.95;18.13;;;;;;;15.42;84.21;101257.50;5043381;28;20032;-42
2021/09/26 04:15:01;;;;;;;24.48;17.40;;;;;;;15.42;84.14;101252.06;5036797;28;20037;-42
2021/09/26 04:17:26;;;;;;;27.30;19.10;;;;;;;15.40;84.30;101256.88;5046160;28;20033;-42
2021/09/26 04:19:52;;;;;;;28.33;18.88;;;;;;;15.40;84.73;101253.31;5063629;28;20090;-42
2021/09/26 04:22:17;;;;;;;25.95;17.80;;;;;;;15.39;84.57;101255.19;5038199;28;20476;-41
2021/09/26 04:24:42;;;;;;;27.45;18.27;;;;;;;15.37;84.84;101252.69;5040150;28;20029;-41
2021/09/26 04:27:08;;;;;;;25.45;18.20;;;;;;;15.39;84.60;101249.78;5041969;28;20032;-42
2021/09/26 04:29:33;;;;;;;27.92;18.25;;;;;;;15.39;84.96;101244.34;5053481;28;20025;-41
2021/09/26 04:31:58;;;;;;;26.73;17.75;;;;;;;15.41;84.58;101247.72;5051382;28;20427;-42
2021/09/26 04:34:27;;;;;;;23.30;18.10;;;;;;;15.43;84.76;101252.91;5043444;28;20108;-41
2021/09/26 04:36:54;;;;;;;25.45;18.17;;;;;;;15.43;84.80;101251.06;5050940;28;20098;-41
2021/09/26 04:39:19;;;;;;;27.40;18.35;;;;;;;15.42;84.80;101254.78;5053154;28;20095;-41
2021/09/26 04:41:44;;;;;;;29.58;18.30;;;;;;;15.37;84.95;101262.69;5038771;28;20464;-41
2021/09/26 04:44:10;;;;;;;25.92;18.33;;;;;;;15.35;85.14;101256.66;5040863;28;20017;-42
2021/09/26 04:46:35;;;;;;;24.08;17.80;;;;;;;15.37;85.03;101258.09;5051152;28;20028;-42
2021/09/26 04:49:00;;;;;;;24.98;17.38;;;;;;;15.39;84.83;101257.91;5044039;28;20116;-42
2021/09/26 04:51:26;;;;;;;28.88;18.50;;;;;;;15.32;85.26;101255.19;5045249;28;20135;-41
2021/09/26 04:53:51;;;;;;;29.35;18.63;;;;;;;15.34;85.58;101257.69;5047290;28;20029;-42
2021/09/26 04:56:17;;;;;;;26.05;17.80;;;;;;;15.40;85.34;101256.03;5032906;28;20017;-41
2021/09/26 04:58:42;;;;;;;31.02;18.83;;;;;;;15.40;85.62;101256.03;5032707;28;20104;-41
2021/09/26 05:01:07;;;;;;;29.90;19.27;;;;;;;15.36;85.99;101256.44;5033563;28;20444;-42
2021/09/26 05:03:33;;;;;;;24.92;17.92;;;;;;;15.40;86.22;101254.16;5039333;28;21221;-42
2021/09/26 05:05:58;;;;;;;32.08;20.60;;;;;;;15.44;85.92;101252.72;5042956;28;20102;-42
2021/09/26 05:08:23;;;;;;;29.13;19.55;;;;;;;15.44;86.58;101250.00;5052574;28;20380;-41
2021/09/26 05:10:49;;;;;;;31.42;21.08;;;;;;;15.43;87.77;101245.63;5041518;28;20029;-43
2021/09/26 05:13:14;;;;;;;29.75;19.90;;;;;;;15.42;87.10;101243.94;5039417;28;20071;-42
2021/09/26 05:15:39;;;;;;;31.25;21.17;;;;;;;15.42;86.59;101234.97;5046552;28;20021;-42
2021/09/26 05:18:05;;;;;;;28.25;18.75;;;;;;;15.48;86.62;101228.72;5040905;28;20029;-42
2021/09/26 05:20:30;;;;;;;32.05;20.65;;;;;;;15.45;87.29;101227.25;5036051;28;20086;-41
2021/09/26 05:22:55;;;;;;;30.88;20.70;;;;;;;15.42;87.68;101229.53;5027789;28;20426;-42
2021/09/26 05:25:22;;;;;;;28.63;19.90;;;;;;;15.43;87.61;101228.50;5045582;28;20099;-41
2021/09/26 05:27:48;;;;;;;33.92;21.38;;;;;;;15.41;87.18;101228.72;5047426;28;20025;-42
2021/09/26 05:30:13;;;;;;;28.52;18.50;;;;;;;15.43;87.25;101231.22;5037059;28;20094;-42
2021/09/26 05:32:39;;;;;;;30.77;20.77;;;;;;;15.39;87.36;101238.94;5049766;28;20028;-41
2021/09/26 05:35:05;;;;;;;32.08;20.80;;;;;;;15.32;87.59;101238.06;5035939;28;20444;-41
2021/09/26 05:37:30;;;;;;;32.80;21.95;;;;;;;15.31;87.43;101237.22;5048147;28;20063;-41
2021/09/26 05:39:56;;;;;;;31.58;20.88;;;;;;;15.30;87.80;101232.03;5034944;28;20488;-41
2021/09/26 05:42:21;;;;;;;35.30;20.75;;;;;;;15.32;87.72;101243.50;5029396;28;20365;-41
2021/09/26 05:44:48;;;;;;;32.45;21.70;;;;;;;15.30;87.55;101241.00;5043569;28;20136;-41
2021/09/26 05:47:14;;;;;;;36.03;22.08;;;;;;;15.31;88.30;101248.09;5044537;28;20116;-42
2021/09/26 05:49:41;;;;;;;32.40;21.40;;;;;;;15.33;88.75;101256.03;5043130;28;20033;-42
2021/09/26 05:52:08;;;;;;;35.20;23.42;;;;;;;15.31;88.90;101268.94;5036813;28;20025;-42
2021/09/26 05:54:35;;;;;;;32.80;21.53;;;;;;;15.32;88.80;101259.75;5030722;28;20041;-41
2021/09/26 05:57:00;;;;;;;37.67;23.40;;;;;;;15.35;89.16;101251.25;5029407;28;20796;-43
2021/09/26 05:59:25;;;;;;;32.15;22.45;;;;;;;15.35;88.67;101260.22;5029089;28;20041;-42
2021/09/26 06:01:51;;;;;;;31.50;22.15;;;;;;;15.38;88.58;101258.97;5046068;28;20483;-41
2021/09/26 06:04:16;;;;;;;31.08;21.98;;;;;;;15.43;88.90;101270.03;5048200;28;20043;-41
2021/09/26 06:06:41;;;;;;;30.05;21.35;;;;;;;15.41;87.76;101263.97;5043143;28;20279;-42
2021/09/26 06:09:07;;;;;;;32.70;20.60;;;;;;;15.42;87.52;101262.09;5029864;28;20029;-41
2021/09/26 06:11:33;;;;;;;31.25;21.45;;;;;;;15.42;87.79;101260.22;5034497;28;20119;-41
2021/09/26 06:13:58;;;;;;;30.30;20.80;;;;;;;15.42;87.58;101262.94;5054192;28;20049;-41
2021/09/26 06:16:23;;;;;;;33.67;21.83;;;;;;;15.46;88.49;101261.50;5037272;28;20029;-42
2021/09/26 06:18:49;;;;;;;37.80;21.67;;;;;;;15.49;88.62;101257.53;5043258;28;20025;-41
2021/09/26 06:21:14;;;;;;;29.38;21.02;;;;;;;15.54;88.45;101255.06;5048841;28;20041;-42
2021/09/26 06:23:39;;;;;;;30.70;21.45;;;;;;;15.61;87.84;101258.59;5046442;28;20389;-41
2021/09/26 06:26:05;;;;;;;33.63;20.90;;;;;;;15.64;88.08;101260.06;5037072;28;20519;-41
2021/09/26 06:28:30;;;;;;;29.45;20.42;;;;;;;15.66;88.31;101258.81;5031675;28;20025;-41
2021/09/26 06:30:55;;;;;;;33.05;21.23;;;;;;;15.70;88.19;101256.56;5037307;28;20389;-41
2021/09/26 06:33:21;;;;;;;30.95;21.15;;;;;;;15.72;88.02;101259.94;5047353;28;20060;-41
2021/09/26 06:35:46;;;;;;;31.98;21.85;;;;;;;15.75;88.40;101265.78;5050704;28;20044;-41
2021/09/26 06:38:11;;;;;;;31.80;20.73;;;;;;;15.76;88.54;101266.59;5054216;28;20029;-41
2021/09/26 06:40:37;;;;;;;32.20;20.95;;;;;;;15.77;88.01;101270.97;5051629;28;20055;-41
2021/09/26 06:43:02;;;;;;;29.95;21.20;;;;;;;15.78;87.84;101272.66;5044441;28;20044;-41
2021/09/26 06:45:28;;;;;;;34.33;22.70;;;;;;;15.83;87.82;101272.88;5052753;28;20075;-43
2021/09/26 06:47:53;;;;;;;28.05;20.50;;;;;;;15.90;87.82;101281.03;5051101;28;20029;-41
2021/09/26 06:50:19;;;;;;;27.00;19.88;;;;;;;15.85;86.90;101287.09;5051138;28;20159;-41
2021/09/26 06:52:44;;;;;;;29.33;20.48;;;;;;;15.88;86.91;101289.38;5036667;28;20029;-43
2021/09/26 06:55:10;;;;;;;27.50;19.60;;;;;;;16.01;86.75;101291.28;5032541;28;20574;-41
2021/09/26 06:57:36;;;;;;;25.40;18.95;;;;;;;15.95;86.01;101279.34;5032219;28;20036;-41
2021/09/26 07:00:03;;;;;;;27.88;19.40;;;;;;;16.03;86.73;101283.75;5032169;28;20022;-41
2021/09/26 07:02:28;;;;;;;27.27;20.35;;;;;;;16.10;86.48;101290.03;5042373;28;20116;-41
2021/09/26 07:04:53;;;;;;;27.90;20.23;;;;;;;16.16;86.31;101285.66;5052210;28;20111;-41
2021/09/26 07:07:22;;;;;;;26.15;19.35;;;;;;;16.27;85.90;101290.44;5052085;28;20492;-41
2021/09/26 07:09:49;;;;;;;23.30;18.60;;;;;;;16.36;85.16;101283.78;5052086;28;20100;-42
2021/09/26 07:12:15;;;;;;;25.77;19.07;;;;;;;16.46;85.13;101289.63;5050455;28;20025;-42
2021/09/26 07:14:40;;;;;;;27.85;19.25;;;;;;;16.39;85.10;101291.50;5034669;28;20065;-42
2021/09/26 07:17:06;;;;;;;24.95;19.13;;;;;;;16.41;85.52;101292.13;5032039;28;20452;-41
2021/09/26 07:19:31;;;;;;;28.38;19.52;;;;;;;16.50;85.33;101291.91;5031928;28;20037;-41
2021/09/26 07:21:56;;;;;;;26.88;18.67;;;;;;;16.60;84.69;101295.06;5032894;28;20029;-41
2021/09/26 07:24:22;;;;;;;23.15;17.20;;;;;;;17.13;83.87;101303.13;5042690;28;20064;-42
2021/09/26 07:26:47;;;;;;;19.90;16.13;;;;;;;18.01;80.83;101302.53;5032886;28;20265;-43
2021/09/26 07:29:12;;;;;;;20.85;15.18;;;;;;;18.72;77.14;101297.72;5031685;28;20037;-43
2021/09/26 07:31:38;;;;;;;16.48;13.43;;;;;;;19.38;74.29;101310.69;5029847;28;20107;-42
2021/09/26 07:34:04;;;;;;;19.58;14.35;;;;;;;20.17;72.04;101310.66;5050605;28;20391;-42
2021/09/26 07:36:30;;;;;;;16.20;13.40;;;;;;;20.52;69.78;101312.59;5040918;28;20033;-43
2021/09/26 07:38:55;;;;;;;13.98;12.35;;;;;;;21.10;69.04;101303.56;5069979;28;20038;-42
2021/09/26 07:41:21;;;;;;;14.90;12.27;;;;;;;21.55;65.35;101300.13;5068674;28;20051;-41
2021/09/26 07:43:47;;;;;;;15.20;12.02;;;;;;;21.80;65.32;101297.06;5038738;28;20029;-41
2021/09/26 07:46:13;;;;;;;14.10;11.98;;;;;;;22.16;64.50;101299.59;5051284;28;20045;-43
2021/09/26 07:48:38;;;;;;;15.48;11.68;;;;;;;22.14;62.34;101308.03;5053029;28;20510;-43
2021/09/26 07:51:03;;;;;;;13.80;11.60;;;;;;;21.89;63.67;101312.00;5053477;28;20025;-42
2021/09/26 07:53:29;;;;;;;13.98;11.88;;;;;;;21.53;64.14;101317.88;5052757;28;20053;-44
2021/09/26 07:55:55;;;;;;;16.02;12.88;;;;;;;21.38;65.30;101324.72;5036243;28;20033;-42
2021/09/26 07:58:20;;;;;;;15.35;12.10;;;;;;;21.01;66.34;101333.19;5054293;28;20364;-42
2021/09/26 08:00:46;;;;;;;15.27;13.27;;;;;;;20.66;66.94;101343.31;5054325;28;20112;-41
2021/09/26 08:03:11;;;;;;;16.60;12.77;;;;;;;20.09;69.90;101341.88;5038438;28;20032;-41
2021/09/26 08:05:37;;;;;;;18.50;14.63;;;;;;;19.94;71.03;101338.72;5034147;28;20021;-41
2021/09/26 08:08:02;;;;;;;15.80;13.50;;;;;;;19.66;71.79;101353.81;5033976;28;20036;-41
2021/09/26 08:10:28;;;;;;;18.85;14.55;;;;;;;19.43;72.39;101354.50;5034134;28;20026;-41
2021/09/26 08:12:53;;;;;;;17.10;14.82;;;;;;;19.20;72.29;101343.44;5033628;28;20462;-41
2021/09/26 08:15:20;;;;;;;18.65;14.70;;;;;;;19.37;73.11;101339.00;5032675;28;20033;-42
2021/09/26 08:17:46;;;;;;;20.30;15.63;;;;;;;19.36;73.08;101334.63;5033916;28;20026;-42
2021/09/26 08:20:13;;;;;;;18.48;15.07;;;;;;;19.11;73.56;101342.03;5016220;28;20057;-43
2021/09/26 08:22:39;;;;;;;19.65;15.73;;;;;;;18.95;72.91;101341.56;5040658;28;20045;-41
2021/09/26 08:25:06;;;;;;;21.80;16.92;;;;;;;18.85;74.62;101342.09;5046249;28;20029;-41
2021/09/26 08:27:31;;;;;;;20.95;15.63;;;;;;;18.91;75.14;101345.81;5053770;28;20032;-42
2021/09/26 08:29:56;;;;;;;19.20;16.48;;;;;;;18.89;75.02;101342.47;5053510;28;20025;-43
2021/09/26 08:32:22;;;;;;;22.98;16.70;;;;;;;18.95;74.62;101346.19;5033615;28;20025;-42
2021/09/26 08:34:47;;;;;;;21.50;16.13;;;;;;;18.95;74.71;101346.19;5053080;28;20059;-43
2021/09/26 08:37:12;;;;;;;18.17;15.77;;;;;;;19.11;74.73;101340.16;5051781;28;20021;-42
2021/09/26 08:39:38;;;;;;;18.98;14.90;;;;;;;19.35;73.91;101341.13;5052791;28;20049;-43
2021/09/26 08:42:04;;;;;;;22.45;16.40;;;;;;;19.37;73.21;101349.94;5041073;28;20021;-42
2021/09/26 08:44:29;;;;;;;17.67;15.13;;;;;;;19.22;72.40;101352.19;5012308;28;20408;-42
2021/09/26 08:46:56;;;;;;;23.38;16.70;;;;;;;19.24;73.24;101356.38;5028627;28;20033;-42
2021/09/26 08:49:22;;;;;;;20.10;15.85;;;;;;;19.03;74.34;101352.19;5047415;28;20033;-43
2021/09/26 08:51:50;;;;;;;21.05;16.75;;;;;;;18.94;74.15;101350.81;5047346;28;20450;-42
2021/09/26 08:54:16;;;;;;;21.05;16.15;;;;;;;18.83;74.34;101341.50;5068928;28;20036;-43
2021/09/26 08:56:42;;;;;;;21.45;16.05;;;;;;;18.76;74.97;101350.78;5064735;28;20116;-41
2021/09/26 08:59:11;;;;;;;18.67;16.73;;;;;;;18.70;74.78;101348.94;5046035;28;20175;-42
2021/09/26 09:01:37;;;;;;;24.45;16.67;;;;;;;18.71;75.03;101353.31;5065279;28;20345;-42
2021/09/26 09:04:03;;;;;;;19.63;15.90;;;;;;;18.67;74.66;101354.81;5031379;28;20036;-41
2021/09/26 09:06:42;;;;;;;19.80;15.32;;;;;;;18.60;74.87;101354.88;5039542;28;20040;-42
2021/09/26 09:09:20;;;;;;;23.35;15.80;;;;;;;18.55;74.99;101357.44;5054602;28;20499;-42
2021/09/26 09:12:03;;;;;;;22.17;15.77;;;;;;;18.64;75.27;101369.72;5063150;28;20033;-42
2021/09/26 09:14:55;;;;;;;22.92;16.25;;;;;;;18.70;74.60;101371.56;5032591;28;20090;-41
2021/09/26 09:17:38;;;;;;;23.48;16.10;;;;;;;18.67;74.52;101366.56;5032727;28;20033;-43
2021/09/26 09:20:10;;;;;;;19.77;15.38;;;;;;;18.53;74.61;101359.53;5032579;28;20049;-41
2021/09/26 09:22:35;;;;;;;21.65;16.33;;;;;;;18.54;75.32;101367.50;5032147;28;20037;-41
2021/09/26 09:25:01;;;;;;;21.35;16.42;;;;;;;18.56;75.12;101370.00;5046634;28;20435;-40
2021/09/26 09:27:26;;;;;;;23.05;16.88;;;;;;;18.54;75.15;101370.25;5051335;28;20040;-41
2021/09/26 09:29:52;;;;;;;20.83;15.70;;;;;;;18.57;75.21;101380.69;5034209;28;20041;-41
2021/09/26 09:32:18;;;;;;;22.10;16.10;;;;;;;18.62;74.79;101369.13;5032417;28;20033;-42
2021/09/26 09:34:44;;;;;;;24.13;16.83;;;;;;;18.73;75.21;101381.19;5049069;28;20111;-41
2021/09/26 09:37:13;;;;;;;21.42;16.65;;;;;;;18.81;75.02;101375.50;5031756;28;20051;-42
2021/09/26 09:39:39;;;;;;;22.60;17.08;;;;;;;18.90;75.24;101381.50;5031935;28;20045;-41
2021/09/26 09:42:21;;;;;;;26.98;16.42;;;;;;;19.05;74.42;101380.09;5033170;28;20476;-41
2021/09/26 09:44:47;;;;;;;20.45;16.27;;;;;;;19.15;73.96;101379.56;5032066;28;20406;-42
2021/09/26 09:47:13;;;;;;;19.77;14.77;;;;;;;19.17;73.07;101384.78;5036462;28;20138;-41
2021/09/26 09:49:55;;;;;;;20.45;15.50;;;;;;;19.20;72.47;101378.91;5072272;28;20033;-42
2021/09/26 09:52:39;;;;;;;20.77;16.98;;;;;;;19.17;72.76;101382.91;5054915;28;20319;-41
2021/09/26 09:55:05;;;;;;;21.00;15.85;;;;;;;19.42;72.18;101384.75;5030792;28;20495;-41
2021/09/26 09:57:31;;;;;;;18.20;15.48;;;;;;;19.55;72.16;101389.22;5030925;28;20060;-42
2021/09/26 09:59:56;;;;;;;19.02;16.00;;;;;;;19.66;71.07;101388.44;5030641;28;20329;-41
2021/09/26 10:02:33;;;;;;;20.83;15.52;;;;;;;19.91;71.27;101386.47;5036726;28;20071;-42
2021/09/26 10:04:59;;;;;;;18.83;15.00;;;;;;;20.10;70.27;101387.25;5051667;28;20363;-42
2021/09/26 10:07:30;;;;;;;17.35;14.38;;;;;;;20.31;70.13;101387.81;5051767;28;20058;-41
2021/09/26 10:09:56;;;;;;;16.05;14.15;;;;;;;20.55;68.49;101384.06;5053598;28;20044;-41
2021/09/26 10:12:27;;;;;;;16.98;14.23;;;;;;;20.72;67.27;101376.03;5043484;28;20072;-42
2021/09/26 10:14:55;;;;;;;19.33;13.48;;;;;;;20.63;67.30;101388.38;5035780;28;20033;-41
2021/09/26 10:17:20;;;;;;;14.68;13.02;;;;;;;20.49;67.25;101386.91;5034417;28;20025;-42
2021/09/26 10:19:46;;;;;;;14.63;12.43;;;;;;;20.58;68.52;101380.88;5038221;28;20119;-42
2021/09/26 10:22:15;;;;;;;16.73;12.45;;;;;;;20.86;67.62;101373.88;5055816;28;20115;-42
2021/09/26 10:24:44;;;;;;;13.98;12.07;;;;;;;20.74;66.07;101381.25;5056011;28;20364;-41
2021/09/26 10:27:14;;;;;;;18.80;13.18;;;;;;;20.85;66.94;101380.41;5065421;28;20021;-41
2021/09/26 10:29:40;;;;;;;16.10;12.98;;;;;;;20.89;66.89;101372.59;5072648;28;20032;-41
2021/09/26 10:32:07;;;;;;;14.32;11.38;;;;;;;21.06;65.64;101378.97;5043021;28;20035;-42
2021/09/26 10:34:33;;;;;;;12.25;10.93;;;;;;;21.19;66.46;101388.84;5051892;28;20563;-41
2021/09/26 10:37:03;;;;;;;14.00;10.90;;;;;;;21.13;64.56;101387.09;5055227;28;20112;-41
2021/09/26 10:39:29;;;;;;;12.80;11.35;;;;;;;21.21;64.08;101387.53;5054229;28;20032;-41
2021/09/26 10:42:03;;;;;;;14.02;11.05;;;;;;;21.12;64.34;101394.47;5047312;28;20026;-41
2021/09/26 10:44:28;;;;;;;20.35;10.75;;;;;;;21.11;63.51;101389.22;5053938;28;20029;-41
2021/09/26 10:47:18;;;;;;;14.60;9.85;;;;;;;21.24;64.56;101384.31;5055683;28;20529;-42
2021/09/26 10:49:46;;;;;;;12.95;9.70;;;;;;;21.43;62.84;101397.91;5049704;28;20037;-42
2021/09/26 10:52:41;;;;;;;11.60;10.20;;;;;;;21.70;61.02;101385.34;5035328;28;20025;-41
2021/09/26 10:55:18;;;;;;;13.73;11.40;;;;;;;21.40;61.93;101382.78;5035501;28;20108;-41
2021/09/26 10:57:43;;;;;;;14.68;10.60;;;;;;;21.27;62.11;101383.88;5036442;28;20384;-42
2021/09/26 11:00:09;;;;;;;13.05;10.40;;;;;;;21.31;62.68;101383.38;5037632;28;20034;-42
2021/09/26 11:02:40;;;;;;;11.85;10.60;;;;;;;21.56;62.34;101378.47;5055449;28;20087;-41
2021/09/26 11:05:20;;;;;;;14.65;11.35;;;;;;;21.63;61.02;101386.56;5069210;28;20037;-42
2021/09/26 11:07:46;;;;;;;16.17;10.48;;;;;;;21.69;60.64;101391.06;5074093;28;20466;-42
2021/09/26 11:10:11;;;;;;;15.98;11.48;;;;;;;21.67;60.28;101395.97;5071049;28;20104;-42